Time;durP1;ratioP1;P1;durP2;ratioP2;P2;SDS_P1;SDS_P2;PMS_P1;PMS_P2;Temp;Humidity;BMP_temperature;BMP_pressure;BME280_temperature;BME280_humidity;BME280_pressure;Samples;Min_cycle;Max_cycle;Signal;HPM_P1;HPM_P2
2022/05/11 00:00:02;;;;;;;24.08;6.93;;;22.20;70.40;;;;;;5036726;28;20472;-61
2022/05/11 00:02:27;;;;;;;21.90;7.38;;;22.20;70.60;;;;;;5039594;28;20159;-61
2022/05/11 00:04:53;;;;;;;17.45;6.90;;;22.20;70.60;;;;;;5036912;28;20025;-62
2022/05/11 00:07:18;;;;;;;22.85;7.05;;;22.20;70.70;;;;;;5040857;28;20061;-62
2022/05/11 00:09:44;;;;;;;25.23;6.55;;;22.20;71.50;;;;;;5037327;28;20056;-62
2022/05/11 00:12:10;;;;;;;25.08;7.03;;;22.20;70.90;;;;;;5037254;28;20055;-63
2022/05/11 00:14:35;;;;;;;19.90;7.35;;;22.10;70.90;;;;;;5039434;28;20048;-62
2022/05/11 00:17:01;;;;;;;21.88;7.88;;;22.10;71.00;;;;;;5035019;28;20100;-61
2022/05/11 00:19:27;;;;;;;21.25;7.30;;;22.10;71.20;;;;;;5038269;28;20455;-61
2022/05/11 00:21:53;;;;;;;17.35;7.55;;;22.00;71.20;;;;;;5021992;28;20037;-61
2022/05/11 00:24:18;;;;;;;22.40;7.15;;;22.00;71.30;;;;;;5040616;28;20037;-61
2022/05/11 00:26:44;;;;;;;14.80;7.03;;;22.00;71.40;;;;;;5025625;28;20057;-60
2022/05/11 00:29:10;;;;;;;20.42;7.70;;;22.00;71.40;;;;;;5039076;28;20485;-61
2022/05/11 00:31:35;;;;;;;15.98;7.28;;;22.00;71.60;;;;;;5038950;28;20130;-61
2022/05/11 00:34:01;;;;;;;21.10;7.07;;;21.90;71.60;;;;;;5044078;28;20577;-61
2022/05/11 00:36:26;;;;;;;17.40;7.05;;;21.90;71.70;;;;;;5039505;28;20040;-61
2022/05/11 00:38:52;;;;;;;19.48;6.82;;;21.90;71.80;;;;;;5041575;28;20166;-60
2022/05/11 00:41:18;;;;;;;19.40;5.80;;;21.90;71.90;;;;;;5041617;28;20264;-62
2022/05/11 00:43:55;;;;;;;22.15;7.03;;;21.80;71.90;;;;;;5039286;28;20464;-62
2022/05/11 00:46:27;;;;;;;18.08;6.93;;;21.80;72.00;;;;;;5037260;28;20058;-60
2022/05/11 00:51:44;;;;;;;23.00;7.25;;;21.70;72.10;;;;;;5024850;28;20052;-62
2022/05/11 00:54:10;;;;;;;15.45;6.93;;;21.70;72.20;;;;;;5036606;28;20210;-62
2022/05/11 00:56:37;;;;;;;15.73;6.72;;;21.70;72.30;;;;;;5037496;28;20111;-60
2022/05/11 00:59:08;;;;;;;16.65;6.90;;;21.70;72.40;;;;;;5038442;28;20041;-62
2022/05/11 01:01:34;;;;;;;20.00;6.93;;;21.70;72.50;;;;;;5040425;28;20729;-64
2022/05/11 01:04:09;;;;;;;18.20;6.95;;;21.70;72.50;;;;;;5023046;28;20137;-60
2022/05/11 01:06:35;;;;;;;13.85;7.47;;;21.60;72.60;;;;;;5039546;28;20550;-60
2022/05/11 01:09:01;;;;;;;10.85;6.78;;;21.60;72.60;;;;;;5022226;28;20040;-61
2022/05/11 01:11:26;;;;;;;15.65;7.90;;;21.60;72.70;;;;;;5021275;28;20028;-60
2022/05/11 01:13:52;;;;;;;17.23;7.30;;;21.50;72.80;;;;;;5040943;28;20182;-62
2022/05/11 01:16:17;;;;;;;17.67;7.45;;;21.60;73.00;;;;;;5039652;28;20017;-60
2022/05/11 01:18:43;;;;;;;21.45;7.80;;;21.50;72.90;;;;;;5038536;28;20381;-61
2022/05/11 01:21:08;;;;;;;12.55;7.30;;;21.50;73.00;;;;;;5036895;28;20103;-62
2022/05/11 01:23:45;;;;;;;12.68;7.72;;;21.40;73.00;;;;;;5036690;28;20078;-59
2022/05/11 01:26:10;;;;;;;15.70;7.78;;;21.40;73.10;;;;;;5039378;28;20051;-62
2022/05/11 01:28:47;;;;;;;22.65;7.97;;;21.40;73.20;;;;;;5039320;28;20064;-62
2022/05/11 01:31:13;;;;;;;19.63;7.43;;;21.40;73.30;;;;;;5039585;28;20354;-61
2022/05/11 01:33:41;;;;;;;14.85;6.95;;;21.40;73.30;;;;;;5039421;28;20140;-61
2022/05/11 01:36:19;;;;;;;17.85;7.75;;;21.40;73.30;;;;;;5018944;28;20041;-61
2022/05/11 01:38:47;;;;;;;14.02;7.85;;;21.40;73.40;;;;;;5038380;28;20500;-61
2022/05/11 01:41:34;;;;;;;14.98;7.80;;;21.30;73.40;;;;;;5021473;28;20032;-61
2022/05/11 01:44:04;;;;;;;16.58;7.93;;;21.30;73.60;;;;;;5025553;28;20058;-61
2022/05/11 01:46:30;;;;;;;16.48;7.20;;;21.20;73.60;;;;;;5037554;28;20055;-61
2022/05/11 01:48:55;;;;;;;17.27;7.78;;;21.20;73.70;;;;;;5039954;28;20508;-62
2022/05/11 01:51:21;;;;;;;16.27;7.47;;;21.20;73.80;;;;;;5040069;28;20033;-61
2022/05/11 01:53:46;;;;;;;16.17;7.20;;;21.20;73.90;;;;;;5039028;28;20095;-60
2022/05/11 01:56:16;;;;;;;18.02;7.13;;;21.10;73.90;;;;;;5037324;28;20398;-60
2022/05/11 01:58:42;;;;;;;14.40;6.80;;;21.10;74.10;;;;;;5038729;28;20552;-60
2022/05/11 02:01:07;;;;;;;20.25;7.05;;;21.10;74.00;;;;;;5038101;28;20147;-62
2022/05/11 02:03:33;;;;;;;14.43;6.80;;;21.10;74.10;;;;;;5038390;28;20136;-60
2022/05/11 02:08:43;;;;;;;11.43;6.53;;;21.00;74.20;;;;;;5026075;28;20044;-62
2022/05/11 02:11:09;;;;;;;15.82;6.45;;;21.00;74.20;;;;;;5038829;28;20033;-61
2022/05/11 02:13:35;;;;;;;13.52;6.18;;;21.00;74.40;;;;;;5034532;28;20136;-61
2022/05/11 02:16:00;;;;;;;14.73;6.50;;;21.00;74.50;;;;;;5035403;28;20125;-62
2022/05/11 02:18:26;;;;;;;13.23;6.53;;;21.00;74.50;;;;;;5038600;28;20048;-60
2022/05/11 02:20:51;;;;;;;15.57;6.20;;;20.90;74.50;;;;;;5036388;28;20033;-60
2022/05/11 02:23:18;;;;;;;11.07;5.88;;;20.90;74.60;;;;;;5037418;28;20037;-60
2022/05/11 02:25:44;;;;;;;12.02;6.72;;;20.90;74.60;;;;;;5021591;28;20451;-60
2022/05/11 02:28:10;;;;;;;13.57;6.63;;;20.90;74.70;;;;;;5020327;28;20190;-62
2022/05/11 02:30:36;;;;;;;18.58;6.20;;;20.90;74.70;;;;;;5035432;28;20032;-61
2022/05/11 02:33:02;;;;;;;10.05;5.78;;;20.80;74.80;;;;;;5040658;28;20509;-61
2022/05/11 02:35:27;;;;;;;12.48;5.65;;;20.80;74.90;;;;;;5034844;28;20055;-62
2022/05/11 02:37:55;;;;;;;12.88;5.82;;;20.80;75.00;;;;;;5039337;28;20041;-60
2022/05/11 02:40:23;;;;;;;9.90;5.32;;;20.70;75.00;;;;;;5038100;28;20512;-61
2022/05/11 02:42:49;;;;;;;20.10;6.30;;;20.70;75.10;;;;;;5023538;28;20049;-62
2022/05/11 02:45:14;;;;;;;17.08;6.47;;;20.70;75.20;;;;;;5038341;28;20067;-62
2022/05/11 02:47:40;;;;;;;13.77;7.00;;;20.70;75.30;;;;;;5025584;28;20060;-60
2022/05/11 02:50:06;;;;;;;18.92;6.20;;;20.70;75.20;;;;;;5037881;28;20071;-60
2022/05/11 02:52:32;;;;;;;21.25;6.75;;;20.80;75.40;;;;;;5038594;28;20033;-60
2022/05/11 02:54:58;;;;;;;20.13;6.93;;;20.70;75.40;;;;;;5022805;28;20303;-61
2022/05/11 02:57:23;;;;;;;15.82;7.07;;;20.60;75.50;;;;;;5023828;28;20040;-62
2022/05/11 02:59:49;;;;;;;20.52;7.35;;;20.60;75.60;;;;;;5004775;28;20081;-59
2022/05/11 03:02:18;;;;;;;15.57;6.90;;;20.50;75.60;;;;;;5021825;28;20029;-61
2022/05/11 03:04:43;;;;;;;14.93;6.68;;;20.50;75.70;;;;;;5036707;28;20049;-60
2022/05/11 03:07:09;;;;;;;17.52;6.70;;;20.60;75.90;;;;;;5020427;28;20083;-61
2022/05/11 03:09:34;;;;;;;15.57;6.70;;;20.50;75.90;;;;;;5038010;28;20029;-60
2022/05/11 03:12:01;;;;;;;11.60;6.25;;;20.50;76.00;;;;;;5037426;28;20036;-64
2022/05/11 03:14:26;;;;;;;16.52;7.00;;;20.50;76.10;;;;;;5038633;28;20104;-61
2022/05/11 03:16:52;;;;;;;11.88;6.53;;;20.40;76.00;;;;;;5037529;28;20491;-61
2022/05/11 03:19:17;;;;;;;20.60;6.85;;;20.40;76.10;;;;;;5037951;28;20555;-60
2022/05/11 03:21:43;;;;;;;17.13;6.78;;;20.40;76.20;;;;;;5036412;28;20104;-61
2022/05/11 03:24:08;;;;;;;14.40;5.93;;;20.40;76.20;;;;;;5039054;28;20116;-59
2022/05/11 03:26:35;;;;;;;12.30;6.30;;;20.40;76.40;;;;;;5037918;28;20095;-62
2022/05/11 03:29:03;;;;;;;10.13;5.95;;;20.30;76.40;;;;;;5037884;28;20124;-61
2022/05/11 03:31:28;;;;;;;15.00;5.95;;;20.30;76.40;;;;;;5018837;28;20045;-60
2022/05/11 03:36:38;;;;;;;12.77;6.72;;;20.30;76.60;;;;;;5039318;28;20051;-61
2022/05/11 03:39:03;;;;;;;11.98;6.05;;;20.20;76.50;;;;;;5039565;28;20483;-61
2022/05/11 03:41:29;;;;;;;14.80;6.25;;;20.20;76.60;;;;;;5036383;28;20017;-61
2022/05/11 03:43:55;;;;;;;15.50;6.63;;;20.20;76.70;;;;;;5020719;28;20029;-61
2022/05/11 03:46:20;;;;;;;10.57;5.95;;;20.20;76.80;;;;;;5019415;28;20037;-63
2022/05/11 03:48:46;;;;;;;9.20;5.82;;;20.10;76.90;;;;;;5039506;28;20049;-60
2022/05/11 03:51:11;;;;;;;10.60;5.28;;;20.10;76.90;;;;;;5037405;28;20072;-60
2022/05/11 03:53:37;;;;;;;13.77;5.22;;;20.00;77.00;;;;;;5040766;28;20033;-63
2022/05/11 03:56:03;;;;;;;19.77;5.65;;;20.00;77.10;;;;;;5036720;28;20028;-60
2022/05/11 03:58:28;;;;;;;8.15;5.90;;;20.00;77.20;;;;;;5023035;28;20060;-59
2022/05/11 04:00:54;;;;;;;10.85;5.90;;;19.90;77.20;;;;;;5041181;28;20389;-61
2022/05/11 04:03:20;;;;;;;13.13;5.35;;;20.00;77.30;;;;;;5042356;28;20469;-60
2022/05/11 04:05:45;;;;;;;12.60;5.55;;;19.90;77.40;;;;;;5039221;28;20108;-62
2022/05/11 04:08:11;;;;;;;7.43;5.10;;;19.90;77.50;;;;;;5042903;28;20056;-61
2022/05/11 04:10:36;;;;;;;8.80;5.35;;;19.90;77.40;;;;;;5039771;28;20076;-61
2022/05/11 04:13:02;;;;;;;9.45;5.32;;;19.90;77.40;;;;;;5042209;28;20103;-60
2022/05/11 04:15:28;;;;;;;7.28;4.38;;;19.80;77.50;;;;;;5039801;28;20024;-62
2022/05/11 04:17:54;;;;;;;9.85;4.93;;;19.80;77.60;;;;;;5041957;28;20357;-60
2022/05/11 04:20:19;;;;;;;10.23;4.80;;;19.80;77.70;;;;;;5040608;28;20053;-61
2022/05/11 04:22:45;;;;;;;10.07;4.90;;;19.80;77.70;;;;;;5023466;28;20029;-60
2022/05/11 04:25:15;;;;;;;8.07;5.15;;;19.60;77.70;;;;;;5039262;28;20173;-62
2022/05/11 04:27:41;;;;;;;6.13;4.93;;;19.70;77.90;;;;;;5041903;28;20043;-61
2022/05/11 04:30:07;;;;;;;9.35;5.20;;;19.70;77.80;;;;;;5040145;28;20135;-60
2022/05/11 04:32:32;;;;;;;32.88;9.00;;;19.70;78.00;;;;;;5041907;28;20104;-60
2022/05/11 04:34:58;;;;;;;72.05;11.82;;;19.70;78.00;;;;;;5039911;28;20029;-62
2022/05/11 04:37:24;;;;;;;48.72;9.20;;;19.60;78.00;;;;;;5040890;28;20037;-62
2022/05/11 04:39:49;;;;;;;50.85;8.63;;;19.60;78.10;;;;;;5023399;28;20236;-61
2022/05/11 04:42:15;;;;;;;39.10;7.40;;;19.60;78.20;;;;;;5007399;28;20047;-60
2022/05/11 04:44:40;;;;;;;38.53;8.00;;;19.60;78.10;;;;;;5038265;28;20080;-63
2022/05/11 04:47:07;;;;;;;38.83;8.20;;;19.60;78.20;;;;;;5025759;28;20037;-61
2022/05/11 04:49:33;;;;;;;31.27;7.82;;;19.60;78.30;;;;;;5038600;28;20366;-65
2022/05/11 04:52:07;;;;;;;32.47;6.63;;;19.60;78.40;;;;;;5056894;28;20036;-60
2022/05/11 04:54:41;;;;;;;34.40;7.28;;;19.50;78.30;;;;;;5040248;28;20080;-61
2022/05/11 04:57:07;;;;;;;19.08;6.35;;;19.50;78.40;;;;;;5024535;28;20046;-63
2022/05/11 04:59:33;;;;;;;23.52;7.20;;;19.50;78.40;;;;;;5023105;28;20029;-61
2022/05/11 05:01:59;;;;;;;27.52;6.68;;;19.50;78.40;;;;;;5039098;28;20056;-62
2022/05/11 05:04:28;;;;;;;24.45;6.57;;;19.50;78.40;;;;;;5039684;28;20044;-59
2022/05/11 05:06:54;;;;;;;35.28;7.78;;;19.50;78.50;;;;;;5041820;28;20064;-60
2022/05/11 05:09:20;;;;;;;24.65;6.22;;;19.50;78.50;;;;;;5037236;28;20032;-61
2022/05/11 05:11:45;;;;;;;35.25;6.88;;;19.50;79.20;;;;;;5041772;28;20507;-62
2022/05/11 05:14:11;;;;;;;24.98;6.30;;;19.40;78.60;;;;;;5041173;28;20030;-61
2022/05/11 05:16:36;;;;;;;26.92;7.15;;;19.50;78.70;;;;;;5037543;28;20481;-62
2022/05/11 05:19:02;;;;;;;22.52;6.57;;;19.40;78.60;;;;;;5042179;28;20052;-61
2022/05/11 05:21:27;;;;;;;27.45;6.82;;;19.40;78.50;;;;;;5038612;28;20408;-62
2022/05/11 05:23:53;;;;;;;22.60;6.60;;;19.40;78.60;;;;;;5037470;28;20041;-60
2022/05/11 05:26:19;;;;;;;21.35;6.43;;;19.40;78.50;;;;;;5004445;28;20091;-60
2022/05/11 05:31:29;;;;;;;35.83;6.90;;;19.40;78.70;;;;;;5037483;28;20206;-62
2022/05/11 05:34:01;;;;;;;29.83;6.07;;;19.50;78.70;;;;;;5039335;28;20504;-60
2022/05/11 05:36:28;;;;;;;19.20;6.57;;;19.40;78.70;;;;;;5025042;28;20044;-61
2022/05/11 05:38:53;;;;;;;28.38;6.88;;;19.40;78.80;;;;;;5022578;28;20112;-61
2022/05/11 05:41:19;;;;;;;20.40;6.45;;;19.40;78.90;;;;;;5038053;28;20140;-61
2022/05/11 05:43:44;;;;;;;20.77;5.78;;;19.40;79.10;;;;;;5037106;28;20997;-60
2022/05/11 05:46:10;;;;;;;16.08;6.05;;;19.40;79.20;;;;;;5024135;28;20219;-64
2022/05/11 05:48:35;;;;;;;15.32;5.63;;;19.40;79.20;;;;;;5040154;28;20244;-61
2022/05/11 05:51:06;;;;;;;13.95;6.15;;;19.30;79.20;;;;;;5021995;28;20033;-60
2022/05/11 05:53:31;;;;;;;19.48;6.00;;;19.40;79.40;;;;;;5040310;28;20327;-61
2022/05/11 05:55:57;;;;;;;17.88;6.20;;;19.40;79.40;;;;;;5019122;28;20090;-60
2022/05/11 05:58:22;;;;;;;14.93;5.50;;;19.40;79.50;;;;;;5006994;28;20052;-63
2022/05/11 06:00:48;;;;;;;15.95;5.97;;;19.40;79.70;;;;;;5020959;28;20032;-60
2022/05/11 06:03:19;;;;;;;17.65;5.75;;;19.30;79.70;;;;;;5021734;28;20635;-61
2022/05/11 06:05:45;;;;;;;22.50;6.25;;;19.30;79.90;;;;;;5014514;28;20044;-60
2022/05/11 06:08:15;;;;;;;20.73;6.05;;;19.30;80.20;;;;;;5017278;28;20334;-59
2022/05/11 06:10:40;;;;;;;21.25;6.45;;;19.30;80.30;;;;;;5034620;28;20670;-60
2022/05/11 06:13:07;;;;;;;19.83;6.00;;;19.20;80.60;;;;;;5031664;28;20059;-59
2022/05/11 06:15:32;;;;;;;21.58;6.15;;;19.20;80.90;;;;;;5036559;28;20029;-62
2022/05/11 06:17:58;;;;;;;15.40;5.53;;;19.20;81.30;;;;;;5021545;28;20041;-62
2022/05/11 06:20:23;;;;;;;13.35;5.38;;;19.10;81.20;;;;;;5020340;28;20382;-62
2022/05/11 06:22:50;;;;;;;15.68;5.00;;;19.10;80.90;;;;;;5032351;28;20223;-61
2022/05/11 06:25:18;;;;;;;11.63;5.15;;;19.10;80.90;;;;;;5026347;28;20037;-62
2022/05/11 06:27:44;;;;;;;13.63;5.47;;;19.10;81.00;;;;;;5030076;28;20033;-60
2022/05/11 06:30:10;;;;;;;24.58;5.90;;;19.20;81.00;;;;;;5034262;28;20504;-62
2022/05/11 06:32:36;;;;;;;18.45;5.53;;;19.20;81.20;;;;;;5009005;28;20405;-60
2022/05/11 06:35:02;;;;;;;19.88;5.60;;;19.30;81.30;;;;;;5020737;28;20052;-62
2022/05/11 06:37:27;;;;;;;14.93;5.00;;;19.20;81.30;;;;;;5025592;28;20497;-62
2022/05/11 06:39:53;;;;;;;74.70;9.75;;;19.20;81.50;;;;;;5026879;28;20029;-61
2022/05/11 06:42:20;;;;;;;62.78;8.30;;;19.30;81.50;;;;;;5027674;28;20476;-61
2022/05/11 06:44:45;;;;;;;22.70;5.47;;;19.30;81.40;;;;;;5017236;28;20041;-60
2022/05/11 06:47:11;;;;;;;21.13;5.70;;;19.30;81.40;;;;;;5029603;28;20067;-62
2022/05/11 06:49:36;;;;;;;14.52;5.30;;;19.30;81.30;;;;;;5034860;28;20029;-61
2022/05/11 06:52:02;;;;;;;19.02;5.40;;;19.30;81.20;;;;;;5000406;28;20129;-63
2022/05/11 06:59:57;;;;;;;20.67;5.00;;;19.40;81.00;;;;;;5026676;28;20083;-61
2022/05/11 07:02:23;;;;;;;19.27;4.90;;;19.40;81.20;;;;;;5019804;28;20111;-61
2022/05/11 07:04:49;;;;;;;17.63;4.72;;;19.40;81.00;;;;;;5016187;28;20053;-60
2022/05/11 07:07:15;;;;;;;77.07;11.15;;;19.40;80.90;;;;;;5031105;28;20033;-61
2022/05/11 07:09:40;;;;;;;28.92;5.93;;;19.40;80.90;;;;;;5014857;28;20069;-63
2022/05/11 07:12:20;;;;;;;45.03;6.20;;;19.40;80.90;;;;;;5028207;28;20033;-62
2022/05/11 07:14:50;;;;;;;26.85;5.97;;;19.40;80.70;;;;;;5018583;28;20033;-64
2022/05/11 07:17:33;;;;;;;34.30;5.85;;;19.40;80.60;;;;;;4997335;28;20068;-60
2022/05/11 07:20:03;;;;;;;45.60;6.75;;;19.40;80.70;;;;;;5026915;28;20480;-61
2022/05/11 07:22:29;;;;;;;37.90;6.65;;;19.40;80.50;;;;;;5010305;28;20493;-63
2022/05/11 07:24:54;;;;;;;33.13;5.93;;;19.40;80.50;;;;;;5035186;28;20036;-62
2022/05/11 07:27:21;;;;;;;43.15;7.18;;;19.50;80.60;;;;;;5016389;28;20440;-63
2022/05/11 07:29:47;;;;;;;36.38;6.22;;;19.50;80.60;;;;;;5009808;28;20041;-62
2022/05/11 07:32:13;;;;;;;33.85;6.63;;;19.50;80.50;;;;;;5009928;28;20037;-61
2022/05/11 07:34:38;;;;;;;32.15;6.07;;;19.50;80.50;;;;;;5036601;28;20163;-60
2022/05/11 07:37:05;;;;;;;77.68;9.15;;;19.50;80.30;;;;;;5033970;28;20079;-60
2022/05/11 07:39:30;;;;;;;25.73;4.85;;;19.60;80.20;;;;;;5030240;28;20037;-60
2022/05/11 07:41:56;;;;;;;33.63;5.82;;;19.50;80.10;;;;;;5026695;28;20068;-61
2022/05/11 07:44:21;;;;;;;29.25;5.88;;;19.50;80.00;;;;;;5031712;28;20098;-62
2022/05/11 07:46:47;;;;;;;29.77;5.38;;;19.60;79.90;;;;;;5034940;28;20090;-61
2022/05/11 07:49:13;;;;;;;42.58;5.78;;;19.60;79.80;;;;;;5010201;28;20040;-61
2022/05/11 07:51:41;;;;;;;32.40;6.47;;;19.60;79.80;;;;;;5020286;28;20388;-61
2022/05/11 07:54:07;;;;;;;33.83;5.85;;;19.60;79.80;;;;;;5027811;28;20045;-61
2022/05/11 08:02:01;;;;;;;34.65;5.55;;;19.70;80.30;;;;;;5035258;28;20055;-62
2022/05/11 08:04:26;;;;;;;28.90;5.55;;;19.70;79.60;;;;;;5034025;28;20024;-60
2022/05/11 08:06:56;;;;;;;27.52;5.75;;;19.70;79.60;;;;;;5026220;28;20041;-63
2022/05/11 08:09:21;;;;;;;30.65;6.00;;;19.70;79.50;;;;;;5032621;28;20492;-62
2022/05/11 08:11:47;;;;;;;24.70;5.35;;;19.70;79.40;;;;;;5031688;28;20029;-62
2022/05/11 08:14:14;;;;;;;24.90;5.18;;;19.80;79.30;;;;;;5036599;28;20037;-63
2022/05/11 08:16:41;;;;;;;22.98;5.13;;;19.80;79.20;;;;;;4996129;28;20037;-63
2022/05/11 08:19:07;;;;;;;22.05;4.60;;;19.70;79.10;;;;;;5018462;28;20124;-61
2022/05/11 08:21:33;;;;;;;29.85;5.18;;;19.90;79.20;;;;;;5037566;28;20367;-63
2022/05/11 08:23:59;;;;;;;23.33;5.00;;;19.80;78.60;;;;;;5009199;28;20810;-64
2022/05/11 08:26:25;;;;;;;17.42;4.35;;;19.80;78.50;;;;;;5015257;28;20036;-62
2022/05/11 08:28:51;;;;;;;25.15;4.20;;;19.80;78.20;;;;;;4999450;28;20054;-61
2022/05/11 08:34:00;;;;;;;10.75;3.83;;;19.90;78.00;;;;;;5031443;28;20633;-62
2022/05/11 08:36:26;;;;;;;39.58;7.10;;;19.90;77.70;;;;;;5034355;28;20061;-61
2022/05/11 08:38:56;;;;;;;41.40;7.05;;;20.00;77.60;;;;;;5009861;28;20029;-63
2022/05/11 08:41:34;;;;;;;17.25;4.93;;;19.90;77.50;;;;;;5026536;28;20724;-62
2022/05/11 08:44:11;;;;;;;32.88;6.22;;;20.00;77.30;;;;;;5026835;28;20032;-64
2022/05/11 08:46:52;;;;;;;26.80;5.32;;;20.30;77.40;;;;;;5028822;28;20040;-60
2022/05/11 08:49:43;;;;;;;25.00;5.38;;;20.00;77.20;;;;;;5015309;28;20056;-64
2022/05/11 08:52:33;;;;;;;29.85;5.90;;;20.10;77.20;;;;;;5031785;28;20124;-65
2022/05/11 08:55:14;;;;;;;26.98;5.20;;;20.10;76.90;;;;;;5028907;28;20557;-64
2022/05/11 08:57:41;;;;;;;26.67;5.38;;;20.10;76.60;;;;;;4995269;28;20201;-64
2022/05/11 09:00:14;;;;;;;20.65;5.25;;;20.10;76.40;;;;;;5002740;28;20079;-63
2022/05/11 09:02:51;;;;;;;23.10;4.53;;;20.20;76.30;;;;;;4996748;28;20528;-62
2022/05/11 09:05:18;;;;;;;27.00;5.38;;;20.20;75.90;;;;;;4986230;28;20045;-61
2022/05/11 09:07:53;;;;;;;29.60;5.93;;;20.30;75.60;;;;;;5011825;28;20025;-64
2022/05/11 09:10:39;;;;;;;21.23;4.82;;;20.30;75.60;;;;;;5012541;28;20300;-61
2022/05/11 09:13:06;;;;;;;24.58;4.65;;;20.30;75.60;;;;;;4998613;28;20074;-62
2022/05/11 09:15:51;;;;;;;24.27;4.80;;;20.40;75.50;;;;;;4992192;28;20080;-65
2022/05/11 09:18:17;;;;;;;24.42;4.95;;;20.40;75.40;;;;;;5030440;28;20038;-63
2022/05/11 09:20:50;;;;;;;72.63;9.68;;;20.40;75.30;;;;;;5021439;28;20032;-62
2022/05/11 09:23:17;;;;;;;26.40;5.55;;;20.40;75.10;;;;;;5021450;28;20168;-64
2022/05/11 09:26:09;;;;;;;32.70;6.32;;;20.40;74.80;;;;;;4996997;28;20049;-62
2022/05/11 09:28:39;;;;;;;126.53;16.05;;;20.50;74.80;;;;;;5032310;28;20467;-63
2022/05/11 09:31:13;;;;;;;60.75;7.82;;;20.60;74.80;;;;;;4999604;28;20029;-63
2022/05/11 09:33:40;;;;;;;43.05;7.28;;;20.60;74.70;;;;;;4996408;28;20048;-64
2022/05/11 09:36:07;;;;;;;48.55;7.15;;;20.60;74.70;;;;;;5012273;28;20118;-63
2022/05/11 09:38:50;;;;;;;48.85;6.97;;;20.70;74.60;;;;;;5017299;28;20133;-61
2022/05/11 09:41:18;;;;;;;43.03;7.25;;;20.70;74.50;;;;;;5025338;28;20060;-62
2022/05/11 09:43:53;;;;;;;43.10;7.57;;;20.80;74.30;;;;;;5025053;28;20029;-61
2022/05/11 09:46:32;;;;;;;45.85;6.85;;;20.80;74.20;;;;;;4996580;28;20384;-64
2022/05/11 09:49:11;;;;;;;32.45;6.88;;;20.90;74.10;;;;;;5015274;28;20053;-63
2022/05/11 09:51:43;;;;;;;40.10;6.93;;;20.90;73.90;;;;;;5023362;28;20042;-62
2022/05/11 09:54:38;;;;;;;52.65;8.50;;;20.90;74.00;;;;;;5024518;28;20048;-64
2022/05/11 09:57:09;;;;;;;42.72;7.55;;;21.00;73.80;;;;;;5015965;28;20036;-63
2022/05/11 09:59:45;;;;;;;50.63;7.53;;;21.00;73.80;;;;;;5038435;28;20029;-63
2022/05/11 10:02:27;;;;;;;36.22;6.32;;;21.10;73.50;;;;;;5016848;28;20021;-60
2022/05/11 10:05:06;;;;;;;39.00;6.80;;;21.10;73.40;;;;;;5028419;28;20053;-64
2022/05/11 10:07:57;;;;;;;39.65;7.07;;;21.10;73.40;;;;;;5024920;28;20067;-62
2022/05/11 10:10:31;;;;;;;31.85;7.00;;;21.20;73.10;;;;;;5009496;28;20037;-62
2022/05/11 10:13:11;;;;;;;31.75;6.30;;;21.20;72.90;;;;;;5022801;28;20021;-68
2022/05/11 10:21:50;;;;;;;42.25;7.35;;;21.40;72.50;;;;;;5036202;28;20048;-63
2022/05/11 10:24:31;;;;;;;35.60;5.90;;;21.50;72.70;;;;;;5028711;28;20515;-62
2022/05/11 10:27:15;;;;;;;36.38;6.68;;;21.50;72.20;;;;;;5017182;28;20033;-62
2022/05/11 10:30:08;;;;;;;29.40;5.93;;;21.50;72.00;;;;;;5028228;28;20179;-62
2022/05/11 10:33:04;;;;;;;48.58;6.55;;;21.60;72.00;;;;;;5020193;28;20040;-62
2022/05/11 10:35:57;;;;;;;65.75;6.85;;;21.60;72.00;;;;;;5028416;28;20480;-62
2022/05/11 10:38:32;;;;;;;45.95;6.95;;;21.60;72.30;;;;;;5029950;28;20656;-65
2022/05/11 10:41:10;;;;;;;42.92;8.18;;;21.70;71.70;;;;;;5031621;28;20194;-62
2022/05/11 10:43:56;;;;;;;42.30;6.07;;;21.80;71.40;;;;;;5007971;28;20053;-62
2022/05/11 10:46:38;;;;;;;;;;;21.90;71.00;;;;;;5027671;28;20065;-66
2022/05/11 10:49:28;;;;;;;61.85;8.75;;;21.90;71.00;;;;;;5029096;28;19916;-66
2022/05/11 10:52:09;;;;;;;60.63;8.55;;;22.00;70.50;;;;;;5026327;28;20952;-62
2022/05/11 10:54:47;;;;;;;42.20;6.50;;;22.10;70.40;;;;;;5016325;28;20029;-63
2022/05/11 10:57:18;;;;;;;42.70;7.47;;;22.10;70.10;;;;;;5029462;28;20034;-62
2022/05/11 10:59:59;;;;;;;47.28;7.25;;;22.20;70.00;;;;;;5023865;28;20143;-61
2022/05/11 11:02:59;;;;;;;48.95;6.20;;;22.30;69.90;;;;;;5029346;28;20158;-62
2022/05/11 11:05:24;;;;;;;50.42;6.40;;;22.30;69.80;;;;;;5028569;28;20565;-60
2022/05/11 11:08:27;;;;;;;48.83;6.93;;;22.40;69.80;;;;;;5023946;28;20077;-61
2022/05/11 11:10:58;;;;;;;24.92;5.35;;;22.50;68.90;;;;;;5013128;28;20029;-62
2022/05/11 11:13:38;;;;;;;32.08;6.45;;;22.60;68.70;;;;;;5025737;28;20479;-62
2022/05/11 11:16:04;;;;;;;39.35;7.10;;;22.60;67.80;;;;;;5011937;28;20121;-62
2022/05/11 11:18:35;;;;;;;35.60;5.90;;;22.80;67.30;;;;;;5029718;28;20437;-62
2022/05/11 11:21:02;;;;;;;19.70;4.72;;;22.80;66.90;;;;;;4983984;28;20191;-60
2022/05/11 11:23:28;;;;;;;26.25;5.20;;;23.00;66.80;;;;;;5029464;28;20041;-62
2022/05/11 11:26:15;;;;;;;34.58;6.40;;;23.00;66.40;;;;;;5023143;28;20044;-60
2022/05/11 11:28:40;;;;;;;52.72;6.03;;;23.10;66.30;;;;;;5008263;28;20046;-61
2022/05/11 11:31:09;;;;;;;30.63;6.32;;;23.20;65.90;;;;;;5021290;28;20048;-66
2022/05/11 11:33:41;;;;;;;37.00;5.72;;;23.30;65.40;;;;;;5021867;28;20059;-62
2022/05/11 11:36:16;;;;;;;36.67;5.38;;;23.40;65.10;;;;;;5001595;28;20084;-62
2022/05/11 11:38:41;;;;;;;37.10;5.60;;;23.50;64.60;;;;;;5021641;28;20041;-61
2022/05/11 11:41:28;;;;;;;35.35;5.88;;;23.60;64.70;;;;;;5019607;28;20299;-61
2022/05/11 11:44:02;;;;;;;36.63;5.72;;;23.80;64.30;;;;;;5028651;28;20167;-62
2022/05/11 11:46:41;;;;;;;28.23;5.75;;;23.80;63.40;;;;;;5007160;28;20298;-62
2022/05/11 11:49:18;;;;;;;33.95;6.22;;;24.00;63.60;;;;;;4993913;28;20061;-62
2022/05/11 11:51:58;;;;;;;25.80;5.18;;;24.10;63.30;;;;;;5022302;28;20067;-62
2022/05/11 11:54:38;;;;;;;37.22;5.18;;;24.20;63.10;;;;;;5028936;28;20528;-61
2022/05/11 11:57:14;;;;;;;31.73;5.25;;;24.30;62.40;;;;;;5028729;28;20460;-61
2022/05/11 11:59:42;;;;;;;37.95;5.22;;;24.40;62.80;;;;;;5024297;28;20425;-60
2022/05/11 12:02:23;;;;;;;35.80;5.35;;;24.50;61.50;;;;;;5018287;28;20053;-61
2022/05/11 12:05:04;;;;;;;28.00;5.07;;;24.60;62.10;;;;;;4991097;28;20040;-63
2022/05/11 12:16:12;;;;;;;27.73;4.90;;;25.00;61.00;;;;;;5026524;28;20044;-60
2022/05/11 12:18:40;;;;;;;30.02;4.90;;;25.10;60.80;;;;;;5025166;28;20045;-64
2022/05/11 12:21:27;;;;;;;22.63;4.85;;;25.20;61.10;;;;;;5027344;28;20029;-60
2022/05/11 12:23:52;;;;;;;33.50;5.05;;;25.30;60.90;;;;;;5017813;28;20172;-60
2022/05/11 12:26:47;;;;;;;41.10;5.60;;;25.40;60.70;;;;;;5015483;28;20446;-60
2022/05/11 12:32:02;;;;;;;35.45;5.43;;;25.60;60.10;;;;;;5033900;28;20043;-61
2022/05/11 12:34:29;;;;;;;32.47;5.47;;;25.70;59.90;;;;;;4999809;28;20060;-64
2022/05/11 12:36:54;;;;;;;45.88;5.55;;;25.80;60.10;;;;;;5027956;28;20043;-62
2022/05/11 12:39:35;;;;;;;31.77;4.95;;;25.90;60.20;;;;;;5015957;28;20611;-61
2022/05/11 12:42:01;;;;;;;25.25;4.88;;;26.00;59.40;;;;;;5034338;28;20032;-62
2022/05/11 12:44:29;;;;;;;42.13;5.72;;;26.00;59.30;;;;;;5007051;28;20501;-62
2022/05/11 12:46:56;;;;;;;30.13;4.65;;;26.10;60.00;;;;;;5013939;28;20680;-62
2022/05/11 12:49:21;;;;;;;46.95;6.50;;;26.20;59.60;;;;;;4999047;28;20319;-61
2022/05/11 12:51:52;;;;;;;40.90;5.93;;;26.30;59.00;;;;;;5004288;28;20047;-60
2022/05/11 12:54:25;;;;;;;55.22;6.47;;;26.30;59.20;;;;;;5020773;28;20125;-64
2022/05/11 12:57:11;;;;;;;34.65;6.43;;;26.50;59.00;;;;;;4997767;28;20861;-59
2022/05/11 12:59:38;;;;;;;38.97;5.57;;;26.50;58.50;;;;;;5015829;28;20064;-61
2022/05/11 13:02:32;;;;;;;39.30;5.88;;;26.60;58.00;;;;;;5031180;28;20090;-62
2022/05/11 13:05:03;;;;;;;47.15;5.82;;;26.70;57.90;;;;;;5009723;28;20043;-62
2022/05/11 13:07:43;;;;;;;41.85;6.65;;;26.80;57.90;;;;;;5024770;28;20274;-61
2022/05/11 13:10:13;;;;;;;41.03;7.20;;;26.80;58.10;;;;;;5028858;28;20041;-60
2022/05/11 13:12:38;;;;;;;45.42;6.13;;;27.00;58.20;;;;;;4997738;28;20037;-63
2022/05/11 13:15:05;;;;;;;33.78;6.80;;;27.00;57.60;;;;;;4999266;28;20025;-61
2022/05/11 13:17:31;;;;;;;36.67;6.22;;;27.10;57.70;;;;;;5026425;28;20118;-62
2022/05/11 13:20:03;;;;;;;39.72;6.35;;;27.20;57.50;;;;;;5022315;28;20108;-63
2022/05/11 13:22:29;;;;;;;48.03;7.18;;;27.30;57.40;;;;;;5017612;28;20463;-62
2022/05/11 13:25:03;;;;;;;49.58;7.00;;;27.40;56.60;;;;;;5007088;28;20143;-61
2022/05/11 13:27:33;;;;;;;61.53;7.75;;;27.60;57.10;;;;;;5004254;28;20029;-62
2022/05/11 13:30:05;;;;;;;58.85;8.20;;;27.60;55.70;;;;;;5014230;28;20029;-61
2022/05/11 13:32:39;;;;;;;69.57;8.43;;;27.70;55.30;;;;;;5020330;28;20052;-63